Time;durP1;ratioP1;P1;durP2;ratioP2;P2;SDS_P1;SDS_P2;PMS_P1;PMS_P2;Temp;Humidity;BMP_temperature;BMP_pressure;BME280_temperature;BME280_humidity;BME280_pressure;Samples;Min_cycle;Max_cycle;Signal;HPM_P1;HPM_P2
2023/05/20 00:02:09;;;;;;;6.03;3.23;;;;;;;14.63;100.00;99486.00;4980543;28;20199;-78
2023/05/20 00:04:37;;;;;;;5.67;2.60;;;;;;;14.60;100.00;99497.75;4979295;28;20207;-79
2023/05/20 00:07:07;;;;;;;3.27;2.40;;;;;;;14.33;100.00;99489.13;4987329;28;20202;-78
2023/05/20 00:09:36;;;;;;;4.40;2.30;;;;;;;14.33;100.00;99486.47;4985798;28;20241;-78
2023/05/20 00:12:05;;;;;;;3.83;2.57;;;;;;;14.44;100.00;99485.66;4981774;28;20487;-78
2023/05/20 00:14:34;;;;;;;7.63;2.67;;;;;;;14.39;100.00;99488.69;4982623;28;20209;-78
2023/05/20 00:17:02;;;;;;;3.67;2.53;;;;;;;14.33;100.00;99481.97;4991253;28;20305;-78
2023/05/20 00:19:30;;;;;;;4.47;2.50;;;;;;;14.42;100.00;99475.13;4989443;28;20203;-79
2023/05/20 00:21:59;;;;;;;4.83;3.07;;;;;;;14.42;100.00;99472.44;4990992;28;20651;-78
2023/05/20 00:24:28;;;;;;;4.57;2.77;;;;;;;14.42;100.00;99468.94;4987975;28;20209;-78
2023/05/20 00:26:57;;;;;;;4.53;2.87;;;;;;;14.42;100.00;99480.44;4986594;28;20203;-78
2023/05/20 00:29:27;;;;;;;3.47;2.40;;;;;;;14.38;100.00;99476.31;4987892;28;20257;-78
2023/05/20 00:31:55;;;;;;;5.53;2.63;;;;;;;14.56;100.00;99488.28;4990840;28;20666;-79
2023/05/20 00:34:24;;;;;;;4.87;3.10;;;;;;;14.60;100.00;99488.91;4988384;28;20202;-78
2023/05/20 00:36:54;;;;;;;3.93;2.70;;;;;;;14.55;100.00;99483.06;4969191;28;20275;-79
2023/05/20 00:39:22;;;;;;;5.33;3.23;;;;;;;14.44;100.00;99475.00;4972009;28;20278;-78
2023/05/20 00:41:52;;;;;;;4.50;2.63;;;;;;;14.65;100.00;99478.75;4968353;28;20274;-78
2023/05/20 00:44:23;;;;;;;5.37;2.90;;;;;;;14.51;100.00;99477.13;4970454;28;20211;-78
2023/05/20 00:46:53;;;;;;;3.93;3.00;;;;;;;14.57;100.00;99474.00;4970687;28;20210;-78
2023/05/20 00:49:22;;;;;;;4.37;3.20;;;;;;;14.52;100.00;99472.63;4965812;28;20319;-78
2023/05/20 00:51:51;;;;;;;3.13;2.67;;;;;;;14.60;100.00;99478.25;4967306;28;20215;-78
2023/05/20 00:54:19;;;;;;;3.60;2.60;;;;;;;14.72;100.00;99471.97;4974155;28;20278;-78
2023/05/20 00:56:48;;;;;;;3.80;2.70;;;;;;;14.63;100.00;99464.69;4992951;28;20266;-78
2023/05/20 00:59:18;;;;;;;2.97;2.20;;;;;;;14.62;100.00;99472.81;4990533;28;20315;-77
2023/05/20 01:01:48;;;;;;;6.03;3.00;;;;;;;14.35;100.00;99468.53;4990347;28;20199;-78
2023/05/20 01:04:16;;;;;;;5.37;2.87;;;;;;;14.43;100.00;99465.31;4990216;28;20282;-78
2023/05/20 01:06:46;;;;;;;4.97;2.93;;;;;;;14.31;100.00;99470.59;4989801;28;20234;-78
2023/05/20 01:09:15;;;;;;;9.43;2.97;;;;;;;14.21;100.00;99464.25;4985395;28;20210;-78
2023/05/20 01:11:51;;;;;;;5.30;3.20;;;;;;;14.31;100.00;99459.94;4992695;28;20199;-78
2023/05/20 01:14:23;;;;;;;4.17;3.17;;;;;;;14.42;100.00;99464.44;4988504;28;20294;-78
2023/05/20 01:16:54;;;;;;;3.53;3.00;;;;;;;14.36;100.00;99456.91;4986716;28;20207;-78
2023/05/20 01:19:32;;;;;;;6.17;3.10;;;;;;;14.45;100.00;99455.41;4985919;28;20233;-78
2023/05/20 01:22:05;;;;;;;4.43;2.77;;;;;;;14.18;100.00;99453.78;4985862;28;20225;-78
2023/05/20 01:24:36;;;;;;;5.87;3.00;;;;;;;14.16;100.00;99460.19;4992252;28;20230;-78
2023/05/20 01:27:09;;;;;;;5.10;3.13;;;;;;;14.22;100.00;99463.28;4987960;28;20206;-78
2023/05/20 01:29:37;;;;;;;3.83;2.90;;;;;;;14.17;100.00;99451.25;4981373;28;20195;-79
2023/05/20 01:32:11;;;;;;;4.07;3.07;;;;;;;14.29;100.00;99455.69;4985892;28;20199;-78
2023/05/20 01:34:42;;;;;;;4.27;3.10;;;;;;;14.18;100.00;99460.94;4995072;28;20230;-78
2023/05/20 01:37:12;;;;;;;4.30;3.07;;;;;;;14.01;100.00;99456.88;4987070;28;20195;-79
2023/05/20 01:39:43;;;;;;;5.63;3.30;;;;;;;13.89;100.00;99458.59;4987254;28;20199;-78
2023/05/20 01:42:12;;;;;;;3.30;3.00;;;;;;;14.04;100.00;99460.16;4986573;28;20211;-78
2023/05/20 01:44:41;;;;;;;4.50;3.20;;;;;;;14.22;100.00;99462.44;4988849;28;20203;-78
2023/05/20 01:47:09;;;;;;;4.23;3.20;;;;;;;14.39;100.00;99459.38;4991938;28;20195;-78
2023/05/20 01:49:38;;;;;;;5.60;3.23;;;;;;;14.07;100.00;99456.41;4988628;28;20210;-78
2023/05/20 01:52:06;;;;;;;4.60;3.70;;;;;;;14.07;100.00;99447.56;4990249;28;20725;-78
2023/05/20 01:54:35;;;;;;;3.33;3.03;;;;;;;14.14;100.00;99438.16;4990101;28;20230;-78
2023/05/20 01:57:05;;;;;;;4.17;3.37;;;;;;;14.09;100.00;99441.19;4991509;28;20191;-78
2023/05/20 01:59:35;;;;;;;4.97;3.17;;;;;;;14.13;100.00;99437.31;4984180;28;20226;-78
2023/05/20 02:02:05;;;;;;;4.33;3.47;;;;;;;14.21;100.00;99442.06;4945068;28;20592;-78
2023/05/20 02:04:33;;;;;;;4.53;3.20;;;;;;;14.08;100.00;99435.94;4991575;28;20191;-78
2023/05/20 02:07:01;;;;;;;4.43;3.40;;;;;;;14.05;100.00;99437.03;4965598;28;20215;-78
2023/05/20 02:09:30;;;;;;;4.60;3.33;;;;;;;14.22;100.00;99433.13;4968566;28;20207;-78
2023/05/20 02:11:58;;;;;;;5.53;3.47;;;;;;;14.24;100.00;99440.03;4970808;28;20219;-78
2023/05/20 02:14:28;;;;;;;5.80;3.20;;;;;;;14.18;100.00;99432.47;4969551;28;20192;-78
2023/05/20 02:16:58;;;;;;;4.80;3.20;;;;;;;14.33;100.00;99442.00;4971314;28;20223;-78
2023/05/20 02:19:27;;;;;;;5.53;3.60;;;;;;;14.30;100.00;99434.25;4971832;28;20223;-78
2023/05/20 02:21:56;;;;;;;4.23;3.47;;;;;;;14.14;100.00;99430.16;4971917;28;20192;-78
2023/05/20 02:24:24;;;;;;;4.27;3.37;;;;;;;14.09;100.00;99434.97;4966843;28;20200;-78
2023/05/20 02:26:54;;;;;;;5.50;3.30;;;;;;;13.96;100.00;99424.38;4964518;28;20686;-78
2023/05/20 02:29:23;;;;;;;4.73;3.57;;;;;;;13.98;100.00;99430.44;4967521;28;20196;-78
2023/05/20 02:31:52;;;;;;;7.23;3.83;;;;;;;13.96;100.00;99427.91;4964880;28;20208;-78
2023/05/20 02:34:21;;;;;;;4.17;3.27;;;;;;;13.95;100.00;99422.69;4971484;28;20216;-78
2023/05/20 02:36:50;;;;;;;6.10;3.27;;;;;;;13.88;100.00;99424.94;4968626;28;20671;-78
2023/05/20 02:39:19;;;;;;;4.63;3.40;;;;;;;13.85;100.00;99422.50;4969061;28;20219;-77
2023/05/20 02:41:47;;;;;;;5.23;3.70;;;;;;;13.80;100.00;99422.03;4970135;28;20200;-78
2023/05/20 02:44:15;;;;;;;5.57;3.80;;;;;;;13.70;100.00;99416.50;4969726;28;20200;-78
2023/05/20 02:46:44;;;;;;;5.23;3.60;;;;;;;13.82;100.00;99421.91;4968153;28;20203;-78
2023/05/20 02:49:14;;;;;;;4.77;3.50;;;;;;;13.80;100.00;99413.16;4969227;28;20203;-78
2023/05/20 02:51:42;;;;;;;6.23;3.60;;;;;;;13.84;100.00;99407.50;4971546;28;20195;-78
2023/05/20 02:54:10;;;;;;;7.13;3.77;;;;;;;13.74;100.00;99410.00;4970588;28;20223;-78
2023/05/20 02:56:39;;;;;;;5.00;3.53;;;;;;;13.77;100.00;99413.38;4965180;28;20212;-78
2023/05/20 02:59:09;;;;;;;4.93;3.30;;;;;;;13.91;100.00;99411.44;4967828;28;20219;-78
2023/05/20 03:01:39;;;;;;;3.83;3.37;;;;;;;13.90;100.00;99404.41;4967916;28;20211;-78
2023/05/20 03:04:09;;;;;;;7.97;3.70;;;;;;;13.74;100.00;99417.13;4964665;28;20231;-78
2023/05/20 03:06:43;;;;;;;5.90;4.03;;;;;;;13.66;100.00;99408.84;4982589;28;20252;-78
2023/05/20 03:09:13;;;;;;;4.83;3.50;;;;;;;13.60;100.00;99403.94;4988509;28;20198;-78
2023/05/20 03:11:41;;;;;;;8.33;3.70;;;;;;;13.58;100.00;99413.88;4982166;28;20198;-78
2023/05/20 03:14:09;;;;;;;4.73;3.70;;;;;;;13.64;100.00;99419.59;4984312;28;20210;-78
2023/05/20 03:16:40;;;;;;;5.23;3.93;;;;;;;13.51;100.00;99423.25;4982088;28;20210;-77
2023/05/20 03:19:08;;;;;;;5.00;3.83;;;;;;;13.68;100.00;99415.75;4981041;28;20222;-78
2023/05/20 03:21:38;;;;;;;4.60;3.93;;;;;;;13.81;100.00;99415.72;4985588;28;20226;-78
2023/05/20 03:24:07;;;;;;;5.47;4.00;;;;;;;13.78;100.00;99423.91;4986956;28;20210;-78
2023/05/20 03:26:37;;;;;;;4.13;3.73;;;;;;;13.75;100.00;99425.00;4987712;28;20555;-78
2023/05/20 03:29:05;;;;;;;5.77;3.57;;;;;;;14.00;100.00;99420.56;4989295;28;20199;-78
2023/05/20 03:31:34;;;;;;;5.47;3.80;;;;;;;13.94;100.00;99418.34;4985346;28;20207;-78
2023/05/20 03:34:02;;;;;;;4.97;3.57;;;;;;;14.07;100.00;99420.94;4984715;28;20233;-78
2023/05/20 03:36:31;;;;;;;6.60;4.10;;;;;;;13.92;100.00;99413.13;4986947;28;20203;-78
2023/05/20 03:39:03;;;;;;;6.97;4.50;;;;;;;13.82;100.00;99417.41;4987762;28;20270;-78
2023/05/20 03:41:32;;;;;;;4.73;4.23;;;;;;;13.87;100.00;99414.41;4987736;28;20202;-78
2023/05/20 03:44:01;;;;;;;5.20;4.30;;;;;;;13.87;100.00;99419.72;4989132;28;20201;-78
2023/05/20 03:46:31;;;;;;;9.43;4.77;;;;;;;13.74;100.00;99415.31;4986265;28;20733;-78
2023/05/20 03:49:00;;;;;;;5.10;4.37;;;;;;;13.77;100.00;99413.38;4992829;28;20225;-78
2023/05/20 03:51:29;;;;;;;6.57;4.30;;;;;;;13.85;100.00;99425.19;4993562;28;20346;-78
2023/05/20 03:53:57;;;;;;;5.70;4.20;;;;;;;13.92;100.00;99418.44;4991747;28;20211;-78
2023/05/20 03:56:28;;;;;;;6.03;4.07;;;;;;;13.95;100.00;99417.38;4984739;28;20207;-78
2023/05/20 03:58:57;;;;;;;6.23;4.53;;;;;;;13.99;100.00;99419.69;4988300;28;20359;-78
2023/05/20 04:01:25;;;;;;;7.33;4.33;;;;;;;14.10;100.00;99413.56;4986456;28;20261;-78
2023/05/20 04:03:54;;;;;;;6.30;4.53;;;;;;;13.80;100.00;99418.47;4988736;28;20195;-78
2023/05/20 04:06:23;;;;;;;5.63;4.37;;;;;;;13.68;100.00;99407.75;4991147;28;20306;-78
2023/05/20 04:08:52;;;;;;;5.37;4.00;;;;;;;13.63;100.00;99409.94;4990365;28;20226;-78
2023/05/20 04:11:20;;;;;;;4.50;4.10;;;;;;;13.46;100.00;99415.59;4986501;28;20205;-77
2023/05/20 04:13:50;;;;;;;6.63;4.43;;;;;;;13.52;100.00;99411.66;4989707;28;20211;-78
2023/05/20 04:16:18;;;;;;;8.17;4.47;;;;;;;13.55;100.00;99404.31;4988640;28;20286;-78
2023/05/20 04:18:47;;;;;;;7.17;4.60;;;;;;;13.59;100.00;99405.78;4990821;28;20199;-78
2023/05/20 04:21:17;;;;;;;4.93;4.33;;;;;;;13.66;100.00;99411.50;4993688;28;20278;-78
2023/05/20 04:23:46;;;;;;;6.83;4.60;;;;;;;13.57;100.00;99415.69;4991178;28;20234;-78
2023/05/20 04:26:15;;;;;;;7.47;4.60;;;;;;;13.56;100.00;99419.31;4957791;28;20199;-78
2023/05/20 04:28:47;;;;;;;5.23;4.60;;;;;;;13.62;100.00;99421.53;4934611;29;20197;-78
2023/05/20 04:31:17;;;;;;;7.10;4.63;;;;;;;13.56;100.00;99413.13;4895950;29;20258;-78
2023/05/20 04:33:47;;;;;;;8.03;4.90;;;;;;;13.64;100.00;99416.94;4891990;29;20199;-78
2023/05/20 04:36:16;;;;;;;5.87;4.47;;;;;;;13.78;100.00;99418.59;4888224;29;20206;-78
2023/05/20 04:38:44;;;;;;;5.70;4.60;;;;;;;13.67;100.00;99418.53;4895920;29;20667;-78
2023/05/20 04:41:14;;;;;;;6.40;4.67;;;;;;;13.52;100.00;99424.97;4892244;29;20328;-78
2023/05/20 04:43:44;;;;;;;5.60;5.00;;;;;;;13.66;100.00;99416.84;4890562;29;20693;-78
2023/05/20 04:46:13;;;;;;;6.13;4.70;;;;;;;13.66;100.00;99417.69;4906217;29;20196;-78
2023/05/20 04:48:43;;;;;;;7.20;5.10;;;;;;;13.68;100.00;99414.91;4959236;28;20226;-78
2023/05/20 04:51:12;;;;;;;7.47;5.53;;;;;;;13.75;100.00;99414.34;4989442;28;20203;-78
2023/05/20 04:53:43;;;;;;;6.10;4.93;;;;;;;13.59;100.00;99407.59;4991125;28;20192;-78
2023/05/20 04:56:14;;;;;;;8.73;5.20;;;;;;;13.84;100.00;99409.31;4993806;28;20230;-78
2023/05/20 04:58:42;;;;;;;6.43;5.60;;;;;;;13.65;100.00;99402.66;4990329;28;20278;-78
2023/05/20 05:01:11;;;;;;;6.00;5.27;;;;;;;13.71;100.00;99404.06;4992064;28;20319;-78
2023/05/20 05:03:42;;;;;;;7.80;5.43;;;;;;;13.61;100.00;99403.03;4990465;28;20199;-79
2023/05/20 05:06:12;;;;;;;6.57;5.60;;;;;;;13.66;100.00;99396.38;4990069;28;20258;-78
2023/05/20 05:08:41;;;;;;;6.80;5.63;;;;;;;13.61;100.00;99397.69;4987765;28;20306;-78
2023/05/20 05:11:10;;;;;;;8.03;5.53;;;;;;;13.68;100.00;99388.28;4992742;28;20651;-78
2023/05/20 05:13:39;;;;;;;12.27;6.23;;;;;;;13.58;100.00;99411.22;4986666;28;20218;-78
2023/05/20 05:16:08;;;;;;;6.67;5.73;;;;;;;13.58;100.00;99400.56;4983632;28;20198;-78
2023/05/20 05:18:36;;;;;;;8.03;6.03;;;;;;;13.54;100.00;99394.63;4982986;28;20198;-78
2023/05/20 05:21:06;;;;;;;8.13;6.07;;;;;;;13.68;100.00;99399.78;4988592;28;20223;-78
2023/05/20 05:23:35;;;;;;;7.57;6.37;;;;;;;13.59;100.00;99396.94;4986957;28;20195;-78
2023/05/20 05:26:04;;;;;;;9.47;6.20;;;;;;;13.59;100.00;99399.59;4929435;29;20208;-78
2023/05/20 05:28:32;;;;;;;8.93;6.60;;;;;;;13.67;100.00;99403.41;4931326;29;20212;-78
2023/05/20 05:31:01;;;;;;;8.53;6.70;;;;;;;13.60;100.00;99398.63;4925237;29;20205;-79
2023/05/20 05:33:29;;;;;;;6.80;6.07;;;;;;;13.68;100.00;99397.13;4925310;29;20197;-78
2023/05/20 05:35:57;;;;;;;9.40;6.30;;;;;;;13.78;100.00;99393.78;4924248;29;20229;-78
2023/05/20 05:38:27;;;;;;;8.77;6.47;;;;;;;13.66;100.00;99395.53;4903690;29;20201;-78
2023/05/20 05:40:57;;;;;;;8.70;6.43;;;;;;;13.60;100.00;99388.84;4928212;29;20303;-78
2023/05/20 05:43:25;;;;;;;12.10;7.63;;;;;;;13.70;100.00;99387.22;4935457;28;20199;-78
2023/05/20 05:45:54;;;;;;;7.83;6.80;;;;;;;13.64;100.00;99395.66;4991111;28;20261;-78
2023/05/20 05:48:22;;;;;;;11.07;7.30;;;;;;;13.70;100.00;99397.00;4991859;28;20221;-78
2023/05/20 05:50:51;;;;;;;10.50;7.23;;;;;;;13.75;100.00;99386.88;4987904;28;20210;-78
2023/05/20 05:53:19;;;;;;;10.00;7.77;;;;;;;13.69;100.00;99390.81;4989328;28;20223;-78
2023/05/20 05:55:47;;;;;;;9.23;7.90;;;;;;;13.65;100.00;99391.19;4992065;28;20242;-78
2023/05/20 05:58:17;;;;;;;8.50;7.47;;;;;;;13.72;100.00;99392.44;4990250;28;20210;-78
2023/05/20 06:00:45;;;;;;;10.63;8.10;;;;;;;13.63;100.00;99399.28;4991609;28;20219;-78
2023/05/20 06:03:14;;;;;;;10.00;7.87;;;;;;;13.58;100.00;99390.75;4987313;28;20199;-78
2023/05/20 06:05:46;;;;;;;10.37;8.13;;;;;;;13.69;100.00;99393.50;4984219;28;20235;-78
2023/05/20 06:08:14;;;;;;;10.17;8.30;;;;;;;13.68;100.00;99401.59;4987921;28;20222;-78
2023/05/20 06:10:47;;;;;;;10.63;8.63;;;;;;;13.65;100.00;99397.34;4981843;28;20199;-78
2023/05/20 06:13:18;;;;;;;12.27;9.17;;;;;;;13.52;100.00;99388.56;4984927;28;20199;-78
2023/05/20 06:15:46;;;;;;;12.13;9.20;;;;;;;13.57;100.00;99383.75;4987692;28;20202;-78
2023/05/20 06:18:14;;;;;;;71.87;47.40;;;;;;;13.56;100.00;99390.03;4988731;28;20203;-78
2023/05/20 06:20:43;;;;;;;13.47;10.90;;;;;;;13.58;100.00;99379.28;4992524;28;20218;-78
2023/05/20 06:23:11;;;;;;;15.37;11.10;;;;;;;13.59;100.00;99395.13;4990493;28;20666;-78
2023/05/20 06:25:39;;;;;;;12.23;10.40;;;;;;;13.75;100.00;99387.72;4987116;28;20191;-78
2023/05/20 06:28:08;;;;;;;16.30;11.27;;;;;;;13.83;100.00;99399.63;4980242;28;20221;-78
2023/05/20 06:30:37;;;;;;;20.23;16.27;;;;;;;13.84;100.00;99399.50;4987299;28;20262;-78
2023/05/20 06:33:05;;;;;;;18.20;15.53;;;;;;;13.90;100.00;99400.88;4989651;28;20199;-78
2023/05/20 06:35:34;;;;;;;15.27;12.63;;;;;;;14.09;100.00;99401.22;4984218;28;20198;-78
2023/05/20 06:38:03;;;;;;;12.07;10.57;;;;;;;14.06;100.00;99411.25;4989821;28;20195;-78
2023/05/20 06:40:32;;;;;;;11.80;9.37;;;;;;;14.12;100.00;99406.31;4985174;28;20760;-78
2023/05/20 06:43:00;;;;;;;15.63;11.00;;;;;;;14.20;100.00;99398.59;4983978;28;20266;-78
2023/05/20 06:45:28;;;;;;;13.13;9.07;;;;;;;14.20;100.00;99398.59;4988302;28;20225;-78
2023/05/20 06:47:59;;;;;;;15.93;11.73;;;;;;;14.39;100.00;99397.22;4986830;28;20219;-78
2023/05/20 06:50:28;;;;;;;12.73;9.60;;;;;;;14.41;100.00;99395.28;4987681;28;20730;-78
2023/05/20 06:52:56;;;;;;;12.77;9.87;;;;;;;14.44;100.00;99397.69;4988451;28;20210;-78
2023/05/20 06:55:27;;;;;;;11.07;9.97;;;;;;;14.42;100.00;99386.31;4990713;28;20219;-78
2023/05/20 06:57:55;;;;;;;13.03;9.30;;;;;;;14.36;100.00;99378.78;4983460;28;20195;-78
2023/05/20 07:00:24;;;;;;;11.47;10.27;;;;;;;14.31;100.00;99377.31;4993518;28;20281;-78
2023/05/20 07:02:52;;;;;;;13.60;11.03;;;;;;;14.52;100.00;99387.34;4987339;28;20282;-78
2023/05/20 07:05:23;;;;;;;11.30;9.13;;;;;;;14.52;100.00;99385.53;4979695;28;20248;-78
2023/05/20 07:07:51;;;;;;;9.97;8.30;;;;;;;14.65;100.00;99393.41;4987621;28;20215;-78
2023/05/20 07:10:19;;;;;;;13.23;11.00;;;;;;;14.79;100.00;99384.38;4981144;28;20206;-78
2023/05/20 07:12:49;;;;;;;10.87;9.40;;;;;;;14.69;100.00;99386.91;4987617;28;20203;-78
2023/05/20 07:15:19;;;;;;;11.20;8.83;;;;;;;14.80;100.00;99386.91;4987148;28;20218;-78
2023/05/20 07:17:47;;;;;;;14.87;9.87;;;;;;;14.71;100.00;99379.63;4985643;28;20203;-78
2023/05/20 07:20:15;;;;;;;12.03;9.40;;;;;;;14.81;100.00;99385.94;4983296;28;20259;-78
2023/05/20 07:22:47;;;;;;;12.30;9.43;;;;;;;14.88;100.00;99373.84;4985491;28;20246;-79
2023/05/20 07:25:15;;;;;;;12.27;8.80;;;;;;;15.15;100.00;99376.16;4991174;28;20277;-78
2023/05/20 07:27:45;;;;;;;12.73;9.80;;;;;;;14.92;100.00;99362.91;4962291;28;20539;-78
2023/05/20 07:30:13;;;;;;;11.50;9.37;;;;;;;15.01;100.00;99367.53;4996996;28;20229;-78
2023/05/20 07:32:42;;;;;;;12.77;9.30;;;;;;;14.99;100.00;99367.66;4993063;28;20195;-78
2023/05/20 07:35:10;;;;;;;10.43;9.30;;;;;;;15.21;100.00;99368.63;4992258;28;20229;-78
2023/05/20 07:37:38;;;;;;;9.90;8.90;;;;;;;15.23;100.00;99369.34;4996149;28;20186;-78
2023/05/20 07:40:10;;;;;;;12.30;9.27;;;;;;;15.33;100.00;99365.81;4993659;28;20202;-79
2023/05/20 07:42:38;;;;;;;10.60;8.67;;;;;;;15.56;100.00;99366.63;4994207;28;20230;-79
2023/05/20 07:45:08;;;;;;;10.70;8.97;;;;;;;15.55;100.00;99356.94;4993925;28;20206;-78
2023/05/20 07:47:36;;;;;;;11.00;9.37;;;;;;;15.85;100.00;99368.78;4991677;28;20205;-79
2023/05/20 07:50:05;;;;;;;11.40;9.33;;;;;;;15.66;100.00;99358.75;4993446;28;20198;-79
2023/05/20 07:52:33;;;;;;;11.97;9.40;;;;;;;15.59;100.00;99368.19;4994034;28;20199;-78
2023/05/20 07:55:23;;;;;;;10.10;8.83;;;;;;;15.67;100.00;99369.31;4997885;28;20234;-79
2023/05/20 07:57:51;;;;;;;11.47;10.03;;;;;;;15.68;100.00;99363.00;4992594;28;20202;-78
2023/05/20 08:00:20;;;;;;;12.63;9.47;;;;;;;15.64;100.00;99352.69;4993978;28;20203;-79
2023/05/20 08:02:49;;;;;;;10.80;8.80;;;;;;;15.65;100.00;99357.06;4944387;28;20215;-78
2023/05/20 08:05:17;;;;;;;11.47;9.60;;;;;;;15.52;100.00;99359.81;4996527;28;20298;-79
2023/05/20 08:07:46;;;;;;;13.63;9.07;;;;;;;15.61;100.00;99368.94;4994521;28;20209;-78
2023/05/20 08:10:14;;;;;;;10.20;8.90;;;;;;;15.78;100.00;99375.59;4994137;28;20199;-79
2023/05/20 08:12:44;;;;;;;10.87;9.83;;;;;;;15.60;100.00;99378.78;4992264;28;20195;-79
2023/05/20 08:15:13;;;;;;;13.37;8.90;;;;;;;15.71;100.00;99381.41;4996631;28;20195;-79
2023/05/20 08:17:41;;;;;;;11.73;9.80;;;;;;;15.57;100.00;99376.34;4957672;28;20210;-78
2023/05/20 08:20:13;;;;;;;14.87;10.20;;;;;;;15.72;100.00;99366.25;4994090;28;20261;-78
2023/05/20 08:22:41;;;;;;;16.60;13.63;;;;;;;15.88;100.00;99371.19;4991744;28;20229;-79
2023/05/20 08:25:10;;;;;;;20.13;15.33;;;;;;;15.91;100.00;99366.44;4988060;28;20203;-79
2023/05/20 08:27:38;;;;;;;14.60;12.67;;;;;;;16.07;100.00;99362.50;4988968;28;20195;-79
2023/05/20 08:30:10;;;;;;;12.57;11.27;;;;;;;16.42;100.00;99363.06;4992909;28;20206;-79
2023/05/20 08:32:38;;;;;;;54.50;44.93;;;;;;;16.34;100.00;99349.50;4950625;28;20199;-78
2023/05/20 08:35:08;;;;;;;14.10;10.90;;;;;;;16.74;100.00;99351.47;4992553;28;20199;-79
2023/05/20 08:37:36;;;;;;;11.00;9.37;;;;;;;16.95;100.00;99336.19;4991644;28;20203;-79
2023/05/20 08:40:05;;;;;;;13.13;9.60;;;;;;;16.93;100.00;99338.19;4992119;28;20219;-79
2023/05/20 08:42:35;;;;;;;10.63;9.63;;;;;;;16.68;100.00;99327.88;4991946;28;20306;-79
2023/05/20 08:45:05;;;;;;;10.90;9.83;;;;;;;16.94;100.00;99339.03;4989554;28;20191;-79
2023/05/20 08:47:35;;;;;;;10.87;9.30;;;;;;;16.84;100.00;99336.31;4993994;28;20206;-78
2023/05/20 08:50:04;;;;;;;10.10;9.00;;;;;;;16.70;100.00;99344.69;4988703;28;20194;-78
2023/05/20 08:52:35;;;;;;;10.73;9.63;;;;;;;16.73;100.00;99334.56;4987241;28;20237;-79
2023/05/20 08:55:08;;;;;;;13.67;10.10;;;;;;;16.51;100.00;99342.72;4995837;28;20206;-78
2023/05/20 08:57:38;;;;;;;10.33;9.23;;;;;;;16.68;100.00;99334.09;4984523;28;20639;-78
2023/05/20 09:00:12;;;;;;;12.77;9.10;;;;;;;16.90;100.00;99338.44;4992863;28;20203;-78
2023/05/20 09:02:43;;;;;;;9.50;8.60;;;;;;;17.21;100.00;99327.72;4991205;28;20362;-79
2023/05/20 09:05:12;;;;;;;9.60;8.60;;;;;;;17.27;100.00;99337.88;4995164;28;20253;-78
2023/05/20 09:07:42;;;;;;;10.97;8.33;;;;;;;17.58;100.00;99327.97;4993157;28;20198;-79
2023/05/20 09:10:11;;;;;;;10.27;8.57;;;;;;;17.53;100.00;99328.34;4987857;28;20230;-79
2023/05/20 09:12:39;;;;;;;10.30;8.33;;;;;;;17.60;100.00;99337.53;4984722;28;20206;-79
2023/05/20 09:15:09;;;;;;;11.00;9.00;;;;;;;17.08;100.00;99358.25;4988367;28;20203;-79
2023/05/20 09:17:37;;;;;;;9.57;7.83;;;;;;;17.22;100.00;99340.13;4983116;28;20219;-79
2023/05/20 09:20:10;;;;;;;14.00;11.17;;;;;;;17.23;100.00;99347.16;4989891;28;20194;-79
2023/05/20 09:22:39;;;;;;;10.27;9.13;;;;;;;17.52;100.00;99342.72;4992243;28;20223;-79
2023/05/20 09:25:11;;;;;;;12.47;9.20;;;;;;;17.48;100.00;99344.00;4991406;28;20199;-79
2023/05/20 09:27:40;;;;;;;9.67;8.20;;;;;;;17.27;100.00;99361.97;4987356;28;20199;-78
2023/05/20 09:30:11;;;;;;;11.87;8.37;;;;;;;17.48;100.00;99353.88;4991365;28;20199;-79
2023/05/20 09:32:39;;;;;;;13.67;9.23;;;;;;;17.65;100.00;99345.16;4990961;28;20249;-79
2023/05/20 09:35:14;;;;;;;11.27;8.20;;;;;;;18.19;100.00;99351.84;4988973;28;20206;-79
2023/05/20 09:37:44;;;;;;;8.80;7.90;;;;;;;18.49;100.00;99349.00;4988496;28;20186;-78
2023/05/20 09:40:16;;;;;;;7.27;6.57;;;;;;;18.54;100.00;99351.25;4988619;28;20261;-79
2023/05/20 09:42:51;;;;;;;10.83;7.80;;;;;;;18.62;100.00;99353.19;4984291;28;20219;-79
2023/05/20 09:45:20;;;;;;;10.43;8.67;;;;;;;17.57;100.00;99355.72;4991489;28;20210;-79
2023/05/20 09:47:51;;;;;;;8.83;7.50;;;;;;;17.77;100.00;99351.28;4992244;28;20198;-79
2023/05/20 09:50:22;;;;;;;11.30;8.93;;;;;;;17.73;100.00;99356.91;4991853;28;20730;-79
2023/05/20 09:52:52;;;;;;;9.73;8.73;;;;;;;17.69;100.00;99346.59;4988969;28;20210;-79
2023/05/20 09:55:23;;;;;;;10.77;8.80;;;;;;;17.42;100.00;99347.22;4989336;28;20203;-78
2023/05/20 09:57:53;;;;;;;11.97;8.77;;;;;;;17.51;100.00;99349.09;4988233;28;20205;-79
2023/05/20 10:00:21;;;;;;;8.63;7.73;;;;;;;17.52;100.00;99342.72;4990301;28;20203;-78
2023/05/20 10:02:53;;;;;;;11.17;8.23;;;;;;;17.61;100.00;99341.06;4989058;28;20219;-79
2023/05/20 10:05:28;;;;;;;12.30;8.77;;;;;;;17.23;100.00;99337.31;4985725;28;20242;-78
2023/05/20 10:08:31;;;;;;;9.90;8.90;;;;;;;17.17;100.00;99340.50;4991692;28;20281;-79
2023/05/20 10:11:20;;;;;;;10.93;8.90;;;;;;;17.10;100.00;99339.38;4988863;28;20195;-78
2023/05/20 10:14:06;;;;;;;11.83;9.67;;;;;;;16.99;100.00;99334.97;4988238;28;20199;-79
2023/05/20 10:16:43;;;;;;;11.47;8.80;;;;;;;17.11;100.00;99336.56;4991602;28;20203;-79
2023/05/20 10:19:19;;;;;;;11.47;9.40;;;;;;;17.22;100.00;99335.63;4982156;28;20279;-79
2023/05/20 10:21:59;;;;;;;11.87;9.57;;;;;;;17.30;100.00;99333.09;4989221;28;20202;-78
2023/05/20 10:24:32;;;;;;;12.83;9.20;;;;;;;17.41;100.00;99324.97;4987018;28;20227;-79
2023/05/20 10:27:03;;;;;;;10.20;9.10;;;;;;;17.46;100.00;99329.88;4988817;28;20206;-79
2023/05/20 10:29:43;;;;;;;10.90;8.33;;;;;;;17.72;100.00;99325.75;4989000;28;20219;-79
2023/05/20 10:32:12;;;;;;;14.90;11.43;;;;;;;17.82;100.00;99328.44;4986433;28;20199;-78
2023/05/20 10:34:50;;;;;;;10.93;9.70;;;;;;;17.66;100.00;99325.41;4983103;28;20195;-79
2023/05/20 10:37:27;;;;;;;13.53;10.03;;;;;;;18.02;100.00;99318.56;4986155;28;20558;-79
2023/05/20 10:40:11;;;;;;;12.03;9.93;;;;;;;18.00;100.00;99321.38;4987856;28;20622;-79
2023/05/20 10:42:43;;;;;;;12.37;9.07;;;;;;;18.17;100.00;99325.19;4984272;28;20249;-79
2023/05/20 10:45:12;;;;;;;15.10;11.20;;;;;;;18.25;100.00;99319.13;4991478;28;20203;-79
2023/05/20 10:47:53;;;;;;;12.67;10.27;;;;;;;18.23;100.00;99327.28;4985038;28;20203;-78
2023/05/20 10:50:29;;;;;;;10.87;9.40;;;;;;;17.93;100.00;99335.47;4988102;28;20202;-80
2023/05/20 10:53:05;;;;;;;10.87;9.53;;;;;;;17.68;100.00;99336.84;4989833;28;20207;-79
2023/05/20 10:55:41;;;;;;;13.70;10.27;;;;;;;17.54;100.00;99332.72;4995284;28;20198;-79
2023/05/20 10:58:10;;;;;;;13.83;10.67;;;;;;;17.49;100.00;99336.81;4990915;28;20237;-78
2023/05/20 11:00:39;;;;;;;13.97;10.23;;;;;;;17.38;100.00;99337.78;4989321;28;20191;-79
2023/05/20 11:03:08;;;;;;;12.57;10.30;;;;;;;17.34;100.00;99333.66;4990668;28;20242;-79
2023/05/20 11:05:36;;;;;;;14.13;11.13;;;;;;;17.38;100.00;99332.44;4986127;28;20257;-78
2023/05/20 11:08:09;;;;;;;13.13;9.63;;;;;;;17.42;100.00;99331.16;4989842;28;20195;-79
2023/05/20 11:10:56;;;;;;;14.87;10.33;;;;;;;17.31;100.00;99324.09;4991292;28;20199;-78
2023/05/20 11:13:25;;;;;;;12.40;10.13;;;;;;;17.21;100.00;99338.44;4983686;28;20209;-79
2023/05/20 11:15:55;;;;;;;13.90;11.33;;;;;;;17.49;100.00;99336.81;4993353;28;20218;-78
2023/05/20 11:18:23;;;;;;;12.60;11.27;;;;;;;17.84;100.00;99325.59;4985692;28;20195;-78
2023/05/20 11:20:53;;;;;;;13.80;11.60;;;;;;;18.55;100.00;99310.88;4991684;28;20210;-79
2023/05/20 11:23:23;;;;;;;12.13;9.70;;;;;;;18.70;100.00;99311.28;4985201;28;20219;-79
2023/05/20 11:25:52;;;;;;;12.60;11.10;;;;;;;18.70;100.00;99310.44;4990625;28;20199;-79
2023/05/20 11:28:21;;;;;;;12.77;10.07;;;;;;;18.44;100.00;99316.41;4988458;28;20214;-79
2023/05/20 11:30:51;;;;;;;13.93;11.00;;;;;;;18.21;100.00;99307.81;4990245;28;20458;-79
2023/05/20 11:33:20;;;;;;;11.70;10.50;;;;;;;18.21;100.00;99310.50;4990735;28;20202;-79